sensor_id;sensor_type;location;lat;lon;timestamp;pressure;altitude;pressure_sealevel;temperature;humidity
54900;BME280;40801;41.924;25.562;2023-07-16T00:00:06;99653.19;;;26.27;50.15
54900;BME280;40801;41.924;25.562;2023-07-16T00:02:33;99660.69;;;26.30;50.34
54900;BME280;40801;41.924;25.562;2023-07-16T00:04:58;99658.34;;;26.32;50.21
54900;BME280;40801;41.924;25.562;2023-07-16T00:07:24;99645.69;;;26.28;50.13
54900;BME280;40801;41.924;25.562;2023-07-16T00:09:49;99657.19;;;26.22;49.98
54900;BME280;40801;41.924;25.562;2023-07-16T00:12:14;99655.63;;;26.21;50.09
54900;BME280;40801;41.924;25.562;2023-07-16T00:14:40;99656.81;;;26.20;49.97
54900;BME280;40801;41.924;25.562;2023-07-16T00:17:05;99651.34;;;26.10;50.32
54900;BME280;40801;41.924;25.562;2023-07-16T00:19:31;99643.44;;;26.08;50.08
54900;BME280;40801;41.924;25.562;2023-07-16T00:21:56;99650.97;;;26.01;50.16
54900;BME280;40801;41.924;25.562;2023-07-16T00:24:21;99656.91;;;26.03;50.01
54900;BME280;40801;41.924;25.562;2023-07-16T00:26:47;99646.66;;;25.96;50.04
54900;BME280;40801;41.924;25.562;2023-07-16T00:29:12;99648.25;;;25.93;49.86
54900;BME280;40801;41.924;25.562;2023-07-16T00:31:37;99646.28;;;25.90;50.12
54900;BME280;40801;41.924;25.562;2023-07-16T00:34:03;99648.69;;;25.85;50.06
54900;BME280;40801;41.924;25.562;2023-07-16T00:36:28;99647.50;;;25.86;49.87
54900;BME280;40801;41.924;25.562;2023-07-16T00:38:54;99647.91;;;25.81;50.08
54900;BME280;40801;41.924;25.562;2023-07-16T00:41:19;99653.06;;;25.79;50.12
54900;BME280;40801;41.924;25.562;2023-07-16T00:43:45;99647.56;;;25.75;50.06
54900;BME280;40801;41.924;25.562;2023-07-16T00:46:10;99645.97;;;25.71;50.30
54900;BME280;40801;41.924;25.562;2023-07-16T00:48:37;99657.41;;;25.69;50.45
54900;BME280;40801;41.924;25.562;2023-07-16T00:51:02;99645.56;;;25.65;50.25
54900;BME280;40801;41.924;25.562;2023-07-16T00:53:29;99651.13;;;25.54;50.81
54900;BME280;40801;41.924;25.562;2023-07-16T00:55:55;99647.19;;;25.52;50.70
54900;BME280;40801;41.924;25.562;2023-07-16T00:58:20;99654.31;;;25.49;50.83
54900;BME280;40801;41.924;25.562;2023-07-16T01:00:46;99644.84;;;25.47;50.88
54900;BME280;40801;41.924;25.562;2023-07-16T01:03:13;99640.91;;;25.48;50.91
54900;BME280;40801;41.924;25.562;2023-07-16T01:05:51;99644.44;;;25.41;52.26
54900;BME280;40801;41.924;25.562;2023-07-16T01:08:46;99645.63;;;25.37;52.08
54900;BME280;40801;41.924;25.562;2023-07-16T01:11:13;99642.88;;;25.37;51.56
54900;BME280;40801;41.924;25.562;2023-07-16T01:13:39;99636.97;;;25.31;51.62
54900;BME280;40801;41.924;25.562;2023-07-16T01:16:06;99648.03;;;25.27;52.18
54900;BME280;40801;41.924;25.562;2023-07-16T01:18:31;99640.16;;;25.26;52.41
54900;BME280;40801;41.924;25.562;2023-07-16T01:20:57;99642.13;;;25.25;52.20
54900;BME280;40801;41.924;25.562;2023-07-16T01:31:19;99631.50;;;25.06;53.13
54900;BME280;40801;41.924;25.562;2023-07-16T01:33:48;99632.31;;;24.99;53.09
54900;BME280;40801;41.924;25.562;2023-07-16T01:36:14;99627.97;;;24.98;53.21
54900;BME280;40801;41.924;25.562;2023-07-16T01:38:41;99632.31;;;24.99;53.04
54900;BME280;40801;41.924;25.562;2023-07-16T01:41:07;99636.22;;;24.91;53.81
54900;BME280;40801;41.924;25.562;2023-07-16T01:43:32;99636.63;;;24.90;53.60
54900;BME280;40801;41.924;25.562;2023-07-16T01:45:58;99637.81;;;24.89;53.59
54900;BME280;40801;41.924;25.562;2023-07-16T01:48:37;99642.94;;;24.87;54.60
54900;BME280;40801;41.924;25.562;2023-07-16T01:51:02;99642.53;;;24.74;54.83
54900;BME280;40801;41.924;25.562;2023-07-16T01:53:28;99642.13;;;24.79;53.91
54900;BME280;40801;41.924;25.562;2023-07-16T01:55:53;99641.72;;;24.77;54.09
54900;BME280;40801;41.924;25.562;2023-07-16T01:58:19;99645.28;;;24.78;54.40
54900;BME280;40801;41.924;25.562;2023-07-16T02:00:44;99646.84;;;24.79;53.95
54900;BME280;40801;41.924;25.562;2023-07-16T02:03:10;99647.63;;;24.79;54.07
54900;BME280;40801;41.924;25.562;2023-07-16T02:05:36;99657.50;;;24.84;53.70
54900;BME280;40801;41.924;25.562;2023-07-16T02:08:01;99657.88;;;24.79;53.92
54900;BME280;40801;41.924;25.562;2023-07-16T02:10:26;99651.59;;;24.67;54.80
54900;BME280;40801;41.924;25.562;2023-07-16T02:12:52;99656.72;;;24.65;54.69
54900;BME280;40801;41.924;25.562;2023-07-16T02:15:18;99657.88;;;24.64;54.40
54900;BME280;40801;41.924;25.562;2023-07-16T02:17:44;99659.06;;;24.67;54.87
54900;BME280;40801;41.924;25.562;2023-07-16T02:20:10;99660.25;;;24.69;54.73
54900;BME280;40801;41.924;25.562;2023-07-16T02:22:36;99659.06;;;24.63;54.76
54900;BME280;40801;41.924;25.562;2023-07-16T02:25:01;99655.53;;;24.59;55.12
54900;BME280;40801;41.924;25.562;2023-07-16T02:27:27;99655.50;;;24.52;55.21
54900;BME280;40801;41.924;25.562;2023-07-16T02:29:52;99661.78;;;24.53;54.92
54900;BME280;40801;41.924;25.562;2023-07-16T02:32:18;99656.28;;;24.49;55.16
54900;BME280;40801;41.924;25.562;2023-07-16T02:34:43;99653.53;;;24.53;54.94
54900;BME280;40801;41.924;25.562;2023-07-16T02:37:09;99661.78;;;24.53;55.07
54900;BME280;40801;41.924;25.562;2023-07-16T02:39:34;99652.72;;;24.52;55.16
54900;BME280;40801;41.924;25.562;2023-07-16T02:41:59;99653.53;;;24.49;55.19
54900;BME280;40801;41.924;25.562;2023-07-16T02:44:25;99653.50;;;24.42;55.32
54900;BME280;40801;41.924;25.562;2023-07-16T02:46:50;99654.69;;;24.45;55.16
54900;BME280;40801;41.924;25.562;2023-07-16T02:49:16;99657.84;;;24.43;55.27
54900;BME280;40801;41.924;25.562;2023-07-16T02:51:41;99662.97;;;24.41;55.30
54900;BME280;40801;41.924;25.562;2023-07-16T02:54:07;99658.63;;;24.44;55.67
54900;BME280;40801;41.924;25.562;2023-07-16T02:56:34;99662.97;;;24.37;55.85
54900;BME280;40801;41.924;25.562;2023-07-16T02:58:59;99660.97;;;24.31;56.25
54900;BME280;40801;41.924;25.562;2023-07-16T03:01:25;99668.88;;;24.32;56.15
54900;BME280;40801;41.924;25.562;2023-07-16T03:03:51;99668.84;;;24.29;56.73
54900;BME280;40801;41.924;25.562;2023-07-16T03:06:16;99669.97;;;24.21;57.37
54900;BME280;40801;41.924;25.562;2023-07-16T03:08:42;99669.53;;;24.08;57.67
54900;BME280;40801;41.924;25.562;2023-07-16T03:11:07;99676.63;;;24.09;57.84
54900;BME280;40801;41.924;25.562;2023-07-16T03:13:32;99675.84;;;24.08;57.54
54900;BME280;40801;41.924;25.562;2023-07-16T03:15:58;99679.38;;;24.09;57.71
54900;BME280;40801;41.924;25.562;2023-07-16T03:18:28;99677.41;;;24.02;58.27
54900;BME280;40801;41.924;25.562;2023-07-16T03:20:54;99686.84;;;24.05;57.91
54900;BME280;40801;41.924;25.562;2023-07-16T03:23:19;99683.72;;;24.06;58.02
54900;BME280;40801;41.924;25.562;2023-07-16T03:25:45;99687.28;;;24.14;57.49
54900;BME280;40801;41.924;25.562;2023-07-16T03:28:10;99686.50;;;24.17;57.42
54900;BME280;40801;41.924;25.562;2023-07-16T03:30:35;99684.94;;;24.20;57.64
54900;BME280;40801;41.924;25.562;2023-07-16T03:33:03;99681.78;;;24.18;58.08
54900;BME280;40801;41.924;25.562;2023-07-16T03:35:28;99677.84;;;24.19;57.98
54900;BME280;40801;41.924;25.562;2023-07-16T03:37:53;99683.75;;;24.21;58.05
54900;BME280;40801;41.924;25.562;2023-07-16T03:40:24;99679.81;;;24.18;58.83
54900;BME280;40801;41.924;25.562;2023-07-16T03:42:50;99685.31;;;24.18;58.44
54900;BME280;40801;41.924;25.562;2023-07-16T03:45:15;99692.41;;;24.19;58.37
54900;BME280;40801;41.924;25.562;2023-07-16T03:47:41;99689.31;;;24.28;58.41
54900;BME280;40801;41.924;25.562;2023-07-16T03:50:07;99691.72;;;24.33;58.44
54900;BME280;40801;41.924;25.562;2023-07-16T03:52:33;99690.13;;;24.39;58.35
54900;BME280;40801;41.924;25.562;2023-07-16T03:54:58;99688.97;;;24.44;58.35
54900;BME280;40801;41.924;25.562;2023-07-16T03:57:24;99691.34;;;24.45;58.43
54900;BME280;40801;41.924;25.562;2023-07-16T03:59:49;99692.50;;;24.48;58.03
54900;BME280;40801;41.924;25.562;2023-07-16T04:02:14;99696.06;;;24.48;58.42
54900;BME280;40801;41.924;25.562;2023-07-16T04:04:40;99697.63;;;24.53;58.29
54900;BME280;40801;41.924;25.562;2023-07-16T04:07:05;99699.66;;;24.59;58.01
54900;BME280;40801;41.924;25.562;2023-07-16T04:09:31;99708.31;;;24.68;57.66
54900;BME280;40801;41.924;25.562;2023-07-16T04:11:56;99700.84;;;24.73;57.13
54900;BME280;40801;41.924;25.562;2023-07-16T04:14:22;99711.88;;;24.76;57.09
54900;BME280;40801;41.924;25.562;2023-07-16T04:16:47;99706.75;;;24.85;56.68
54900;BME280;40801;41.924;25.562;2023-07-16T04:19:12;99716.63;;;24.93;56.27
54900;BME280;40801;41.924;25.562;2023-07-16T04:21:38;99722.97;;;25.01;55.63
54900;BME280;40801;41.924;25.562;2023-07-16T04:24:05;99717.44;;;25.05;55.12
54900;BME280;40801;41.924;25.562;2023-07-16T04:26:31;99724.94;;;25.11;55.19
54900;BME280;40801;41.924;25.562;2023-07-16T04:28:56;99713.13;;;25.21;54.42
54900;BME280;40801;41.924;25.562;2023-07-16T04:31:22;99719.03;;;25.30;54.03
54900;BME280;40801;41.924;25.562;2023-07-16T04:33:48;99718.63;;;25.36;54.47
54900;BME280;40801;41.924;25.562;2023-07-16T04:36:13;99717.41;;;25.51;53.25
54900;BME280;40801;41.924;25.562;2023-07-16T04:38:39;99719.78;;;25.67;52.62
54900;BME280;40801;41.924;25.562;2023-07-16T04:41:04;99716.22;;;25.77;52.82
54900;BME280;40801;41.924;25.562;2023-07-16T04:43:29;99713.84;;;25.72;52.43
54900;BME280;40801;41.924;25.562;2023-07-16T04:45:55;99717.75;;;25.85;52.51
54900;BME280;40801;41.924;25.562;2023-07-16T04:48:20;99722.47;;;25.91;52.30
54900;BME280;40801;41.924;25.562;2023-07-16T04:50:46;99723.66;;;25.94;52.63
54900;BME280;40801;41.924;25.562;2023-07-16T04:53:11;99725.63;;;25.93;52.58
54900;BME280;40801;41.924;25.562;2023-07-16T04:55:38;99729.13;;;26.08;52.20
54900;BME280;40801;41.924;25.562;2023-07-16T04:58:04;99733.03;;;26.21;51.88
54900;BME280;40801;41.924;25.562;2023-07-16T05:00:32;99735.38;;;26.37;51.56
54900;BME280;40801;41.924;25.562;2023-07-16T05:02:58;99729.78;;;26.44;51.06
54900;BME280;40801;41.924;25.562;2023-07-16T05:05:24;99739.19;;;26.58;50.80
54900;BME280;40801;41.924;25.562;2023-07-16T05:07:49;99730.88;;;26.65;50.86
54900;BME280;40801;41.924;25.562;2023-07-16T05:10:14;99737.53;;;26.71;51.42
54900;BME280;40801;41.924;25.562;2023-07-16T05:12:40;99735.03;;;26.87;50.99
54900;BME280;40801;41.924;25.562;2023-07-16T05:15:06;99730.66;;;26.97;50.41
54900;BME280;40801;41.924;25.562;2023-07-16T05:17:31;99736.84;;;27.19;49.66
54900;BME280;40801;41.924;25.562;2023-07-16T05:19:57;99738.81;;;27.14;50.10
54900;BME280;40801;41.924;25.562;2023-07-16T05:22:22;99734.09;;;27.11;49.70
54900;BME280;40801;41.924;25.562;2023-07-16T05:24:47;99734.03;;;27.22;50.11
54900;BME280;40801;41.924;25.562;2023-07-16T05:27:13;99736.34;;;27.31;49.73
54900;BME280;40801;41.924;25.562;2023-07-16T05:29:38;99742.06;;;27.54;49.11
54900;BME280;40801;41.924;25.562;2023-07-16T05:32:04;99748.72;;;27.60;48.75
54900;BME280;40801;41.924;25.562;2023-07-16T05:34:29;99747.47;;;27.68;48.21
54900;BME280;40801;41.924;25.562;2023-07-16T05:36:55;99750.56;;;27.74;48.25
54900;BME280;40801;41.924;25.562;2023-07-16T05:39:21;99749.19;;;27.93;48.00
54900;BME280;40801;41.924;25.562;2023-07-16T05:41:47;99753.50;;;27.97;48.06
54900;BME280;40801;41.924;25.562;2023-07-16T05:44:12;99740.78;;;28.00;47.32
54900;BME280;40801;41.924;25.562;2023-07-16T05:46:38;99752.97;;;28.10;46.40
54900;BME280;40801;41.924;25.562;2023-07-16T05:49:03;99752.09;;;28.16;46.85
54900;BME280;40801;41.924;25.562;2023-07-16T05:51:29;99749.28;;;28.20;46.65
54900;BME280;40801;41.924;25.562;2023-07-16T05:53:54;99753.50;;;28.35;46.13
54900;BME280;40801;41.924;25.562;2023-07-16T05:56:20;99760.47;;;28.47;45.72
54900;BME280;40801;41.924;25.562;2023-07-16T05:58:45;99757.50;;;28.30;45.90
54900;BME280;40801;41.924;25.562;2023-07-16T06:01:10;99763.91;;;28.54;45.47
54900;BME280;40801;41.924;25.562;2023-07-16T06:03:36;99760.22;;;28.64;45.54
54900;BME280;40801;41.924;25.562;2023-07-16T06:06:01;99756.63;;;28.67;44.75
54900;BME280;40801;41.924;25.562;2023-07-16T06:08:27;99760.97;;;28.68;44.64
54900;BME280;40801;41.924;25.562;2023-07-16T06:10:52;99759.44;;;28.64;44.91
54900;BME280;40801;41.924;25.562;2023-07-16T06:13:17;99761.44;;;28.63;44.46
54900;BME280;40801;41.924;25.562;2023-07-16T06:15:43;99767.31;;;28.69;43.96
54900;BME280;40801;41.924;25.562;2023-07-16T06:18:09;99755.78;;;28.71;43.95
54900;BME280;40801;41.924;25.562;2023-07-16T06:20:34;99763.56;;;28.79;44.36
54900;BME280;40801;41.924;25.562;2023-07-16T06:23:00;99768.06;;;29.00;43.98
54900;BME280;40801;41.924;25.562;2023-07-16T06:25:25;99764.53;;;29.23;43.30
54900;BME280;40801;41.924;25.562;2023-07-16T06:27:51;99764.53;;;29.46;43.19
54900;BME280;40801;41.924;25.562;2023-07-16T06:30:16;99762.19;;;29.68;42.84
54900;BME280;40801;41.924;25.562;2023-07-16T06:32:42;99762.56;;;29.90;42.86
54900;BME280;40801;41.924;25.562;2023-07-16T06:35:08;99760.00;;;29.99;41.38
54900;BME280;40801;41.924;25.562;2023-07-16T06:37:33;99765.13;;;30.01;40.57
54900;BME280;40801;41.924;25.562;2023-07-16T06:39:59;99762.06;;;29.95;39.38
54900;BME280;40801;41.924;25.562;2023-07-16T06:42:24;99764.81;;;30.18;38.22
54900;BME280;40801;41.924;25.562;2023-07-16T06:44:49;99757.69;;;30.37;37.27
54900;BME280;40801;41.924;25.562;2023-07-16T06:47:15;99762.16;;;30.51;37.45
54900;BME280;40801;41.924;25.562;2023-07-16T06:49:41;99759.97;;;30.59;36.75
54900;BME280;40801;41.924;25.562;2023-07-16T06:52:06;99762.06;;;30.74;37.22
54900;BME280;40801;41.924;25.562;2023-07-16T06:54:31;99752.34;;;30.99;36.87
54900;BME280;40801;41.924;25.562;2023-07-16T06:56:57;99751.84;;;31.20;36.74
54900;BME280;40801;41.924;25.562;2023-07-16T06:59:22;99749.69;;;31.28;36.23
54900;BME280;40801;41.924;25.562;2023-07-16T07:01:48;99740.50;;;31.43;34.70
54900;BME280;40801;41.924;25.562;2023-07-16T07:04:13;99750.63;;;31.37;34.22
54900;BME280;40801;41.924;25.562;2023-07-16T07:06:39;99746.06;;;31.43;34.08
54900;BME280;40801;41.924;25.562;2023-07-16T07:09:05;99747.28;;;31.42;33.96
54900;BME280;40801;41.924;25.562;2023-07-16T07:11:31;99745.38;;;31.56;34.07
54900;BME280;40801;41.924;25.562;2023-07-16T07:13:56;99738.47;;;31.60;33.81
54900;BME280;40801;41.924;25.562;2023-07-16T07:16:23;99734.47;;;31.61;33.42
54900;BME280;40801;41.924;25.562;2023-07-16T07:18:48;99739.16;;;31.64;33.24
54900;BME280;40801;41.924;25.562;2023-07-16T07:21:14;99738.38;;;31.64;33.18
54900;BME280;40801;41.924;25.562;2023-07-16T07:23:39;99742.19;;;31.86;33.75
54900;BME280;40801;41.924;25.562;2023-07-16T07:26:05;99736.50;;;31.90;33.31
54900;BME280;40801;41.924;25.562;2023-07-16T07:28:31;99733.94;;;31.95;33.37
54900;BME280;40801;41.924;25.562;2023-07-16T07:30:56;99732.06;;;32.05;33.37
54900;BME280;40801;41.924;25.562;2023-07-16T07:33:22;99729.66;;;32.20;33.14
54900;BME280;40801;41.924;25.562;2023-07-16T07:35:47;99725.81;;;32.43;32.98
54900;BME280;40801;41.924;25.562;2023-07-16T07:38:12;99726.72;;;32.52;33.26
54900;BME280;40801;41.924;25.562;2023-07-16T07:40:38;99727.84;;;32.68;32.50
54900;BME280;40801;41.924;25.562;2023-07-16T07:43:03;99728.75;;;32.77;31.83
54900;BME280;40801;41.924;25.562;2023-07-16T07:45:29;99729.78;;;32.83;31.85
54900;BME280;40801;41.924;25.562;2023-07-16T07:47:54;99727.63;;;32.87;31.53
54900;BME280;40801;41.924;25.562;2023-07-16T07:50:20;99721.59;;;32.89;30.82
54900;BME280;40801;41.924;25.562;2023-07-16T07:52:45;99726.06;;;32.99;31.04
54900;BME280;40801;41.924;25.562;2023-07-16T07:55:11;99726.63;;;33.07;31.85
54900;BME280;40801;41.924;25.562;2023-07-16T07:57:36;99720.00;;;33.13;32.38
54900;BME280;40801;41.924;25.562;2023-07-16T08:00:02;99724.91;;;33.35;31.65
54900;BME280;40801;41.924;25.562;2023-07-16T08:02:28;99721.53;;;33.40;30.92
54900;BME280;40801;41.924;25.562;2023-07-16T08:04:54;99722.84;;;33.48;31.32
54900;BME280;40801;41.924;25.562;2023-07-16T08:07:23;99729.50;;;33.63;30.85
54900;BME280;40801;41.924;25.562;2023-07-16T08:09:49;99722.94;;;33.79;30.17
54900;BME280;40801;41.924;25.562;2023-07-16T08:12:14;99719.94;;;33.73;29.86
54900;BME280;40801;41.924;25.562;2023-07-16T08:14:40;99718.38;;;33.72;30.31
54900;BME280;40801;41.924;25.562;2023-07-16T08:17:06;99717.66;;;33.81;30.45
54900;BME280;40801;41.924;25.562;2023-07-16T08:19:32;99721.63;;;33.83;30.09
54900;BME280;40801;41.924;25.562;2023-07-16T08:21:57;99731.19;;;33.95;29.86
54900;BME280;40801;41.924;25.562;2023-07-16T08:24:24;99721.72;;;34.24;29.24
54900;BME280;40801;41.924;25.562;2023-07-16T08:26:50;99724.53;;;34.45;28.23
54900;BME280;40801;41.924;25.562;2023-07-16T08:29:15;99729.47;;;34.82;27.71
54900;BME280;40801;41.924;25.562;2023-07-16T08:31:41;99719.59;;;34.99;27.42
54900;BME280;40801;41.924;25.562;2023-07-16T08:34:06;99716.88;;;35.45;27.13
54900;BME280;40801;41.924;25.562;2023-07-16T08:36:33;99717.50;;;35.76;26.47
54900;BME280;40801;41.924;25.562;2023-07-16T08:38:58;99720.34;;;35.94;26.13
54900;BME280;40801;41.924;25.562;2023-07-16T08:41:24;99712.63;;;36.22;24.88
54900;BME280;40801;41.924;25.562;2023-07-16T08:43:50;99712.97;;;36.15;24.49
54900;BME280;40801;41.924;25.562;2023-07-16T08:46:16;99719.44;;;36.49;24.93
54900;BME280;40801;41.924;25.562;2023-07-16T08:48:42;99707.75;;;36.83;24.26
54900;BME280;40801;41.924;25.562;2023-07-16T08:51:09;99711.28;;;36.93;24.11
54900;BME280;40801;41.924;25.562;2023-07-16T08:53:35;99710.91;;;37.24;24.06
54900;BME280;40801;41.924;25.562;2023-07-16T08:56:00;99705.34;;;37.63;23.39
54900;BME280;40801;41.924;25.562;2023-07-16T08:58:28;99704.84;;;37.88;23.64
54900;BME280;40801;41.924;25.562;2023-07-16T09:00:55;99700.44;;;37.72;23.34
54900;BME280;40801;41.924;25.562;2023-07-16T09:03:21;99705.41;;;38.07;23.70
54900;BME280;40801;41.924;25.562;2023-07-16T09:05:47;99701.00;;;38.65;22.11
54900;BME280;40801;41.924;25.562;2023-07-16T09:08:13;99703.41;;;38.72;21.32
54900;BME280;40801;41.924;25.562;2023-07-16T09:10:41;99693.34;;;38.51;20.94
54900;BME280;40801;41.924;25.562;2023-07-16T09:13:07;99691.50;;;38.48;21.47
54900;BME280;40801;41.924;25.562;2023-07-16T09:15:33;99694.50;;;38.44;22.31
54900;BME280;40801;41.924;25.562;2023-07-16T09:18:03;99690.28;;;39.04;21.45
54900;BME280;40801;41.924;25.562;2023-07-16T09:20:29;99685.44;;;39.04;21.98
54900;BME280;40801;41.924;25.562;2023-07-16T09:22:56;99697.28;;;39.29;21.25
54900;BME280;40801;41.924;25.562;2023-07-16T09:25:31;99697.00;;;39.27;21.13
54900;BME280;40801;41.924;25.562;2023-07-16T09:28:18;99694.47;;;39.29;20.67
54900;BME280;40801;41.924;25.562;2023-07-16T09:30:44;99694.44;;;39.49;21.18
54900;BME280;40801;41.924;25.562;2023-07-16T09:33:22;99688.19;;;39.86;20.94
54900;BME280;40801;41.924;25.562;2023-07-16T09:35:51;99681.97;;;39.82;21.24
54900;BME280;40801;41.924;25.562;2023-07-16T09:38:17;99682.22;;;40.04;20.59
54900;BME280;40801;41.924;25.562;2023-07-16T09:40:44;99683.47;;;40.66;20.22
54900;BME280;40801;41.924;25.562;2023-07-16T09:43:11;99679.31;;;40.24;20.64
54900;BME280;40801;41.924;25.562;2023-07-16T09:45:37;99675.16;;;40.51;20.69
54900;BME280;40801;41.924;25.562;2023-07-16T09:48:03;99669.69;;;40.79;20.66
54900;BME280;40801;41.924;25.562;2023-07-16T09:50:32;99674.50;;;40.36;20.18
54900;BME280;40801;41.924;25.562;2023-07-16T09:52:57;99670.00;;;40.87;19.96
54900;BME280;40801;41.924;25.562;2023-07-16T09:55:24;99667.06;;;40.76;20.26
54900;BME280;40801;41.924;25.562;2023-07-16T09:57:55;99660.22;;;40.82;19.74
54900;BME280;40801;41.924;25.562;2023-07-16T10:00:22;99661.19;;;41.33;19.94
54900;BME280;40801;41.924;25.562;2023-07-16T10:02:50;99654.03;;;41.49;19.58
54900;BME280;40801;41.924;25.562;2023-07-16T10:05:18;99657.72;;;41.66;19.48
54900;BME280;40801;41.924;25.562;2023-07-16T10:07:52;99655.84;;;41.58;18.76
54900;BME280;40801;41.924;25.562;2023-07-16T10:10:18;99649.91;;;41.44;19.39
54900;BME280;40801;41.924;25.562;2023-07-16T10:12:55;99651.84;;;41.16;20.02
54900;BME280;40801;41.924;25.562;2023-07-16T10:15:28;99636.19;;;41.21;20.74
54900;BME280;40801;41.924;25.562;2023-07-16T10:17:55;99645.00;;;41.39;20.26
54900;BME280;40801;41.924;25.562;2023-07-16T10:20:39;99634.28;;;41.77;19.77
54900;BME280;40801;41.924;25.562;2023-07-16T10:25:40;99635.25;;;41.46;19.85
54900;BME280;40801;41.924;25.562;2023-07-16T10:28:06;99629.47;;;41.12;20.45
54900;BME280;40801;41.924;25.562;2023-07-16T10:30:33;99630.94;;;41.73;20.46
54900;BME280;40801;41.924;25.562;2023-07-16T10:33:03;99631.44;;;41.77;19.23
54900;BME280;40801;41.924;25.562;2023-07-16T10:35:34;99627.84;;;42.21;19.43
54900;BME280;40801;41.924;25.562;2023-07-16T10:37:59;99626.59;;;42.05;19.86
54900;BME280;40801;41.924;25.562;2023-07-16T10:40:24;99623.72;;;42.28;19.48
54900;BME280;40801;41.924;25.562;2023-07-16T10:42:52;99617.97;;;42.67;19.22
54900;BME280;40801;41.924;25.562;2023-07-16T10:45:17;99620.13;;;41.83;19.99
54900;BME280;40801;41.924;25.562;2023-07-16T10:47:54;99614.97;;;42.31;19.33
54900;BME280;40801;41.924;25.562;2023-07-16T10:50:20;99606.13;;;42.63;19.39
54900;BME280;40801;41.924;25.562;2023-07-16T10:52:55;99607.19;;;42.54;18.75
54900;BME280;40801;41.924;25.562;2023-07-16T10:55:22;99605.56;;;42.81;19.43
54900;BME280;40801;41.924;25.562;2023-07-16T10:57:49;99606.09;;;42.80;18.99
54900;BME280;40801;41.924;25.562;2023-07-16T11:00:18;99595.22;;;42.89;19.19
54900;BME280;40801;41.924;25.562;2023-07-16T11:02:44;99592.53;;;43.08;19.06
54900;BME280;40801;41.924;25.562;2023-07-16T11:05:11;99591.50;;;43.11;18.80
54900;BME280;40801;41.924;25.562;2023-07-16T11:07:37;99586.59;;;43.12;18.71
54900;BME280;40801;41.924;25.562;2023-07-16T11:10:02;99582.59;;;42.85;18.67
54900;BME280;40801;41.924;25.562;2023-07-16T11:12:28;99581.34;;;42.69;18.83
54900;BME280;40801;41.924;25.562;2023-07-16T11:14:55;99582.34;;;42.88;19.29
54900;BME280;40801;41.924;25.562;2023-07-16T11:17:22;99572.78;;;42.91;19.36
54900;BME280;40801;41.924;25.562;2023-07-16T11:19:51;99580.03;;;43.34;19.33
54900;BME280;40801;41.924;25.562;2023-07-16T11:22:16;99580.94;;;43.06;19.03
54900;BME280;40801;41.924;25.562;2023-07-16T11:24:46;99567.81;;;43.44;19.26
54900;BME280;40801;41.924;25.562;2023-07-16T11:27:14;99565.31;;;43.71;19.43
54900;BME280;40801;41.924;25.562;2023-07-16T11:29:44;99569.69;;;42.89;19.62
54900;BME280;40801;41.924;25.562;2023-07-16T11:32:10;99571.19;;;43.43;19.02
54900;BME280;40801;41.924;25.562;2023-07-16T11:34:35;99569.91;;;43.44;19.02
54900;BME280;40801;41.924;25.562;2023-07-16T11:37:10;99559.88;;;43.73;18.80
54900;BME280;40801;41.924;25.562;2023-07-16T11:39:36;99554.94;;;44.52;17.42
54900;BME280;40801;41.924;25.562;2023-07-16T11:42:03;99552.22;;;44.41;17.67
54900;BME280;40801;41.924;25.562;2023-07-16T11:44:35;99565.78;;;44.05;18.21
54900;BME280;40801;41.924;25.562;2023-07-16T11:47:02;99555.41;;;43.47;18.85
54900;BME280;40801;41.924;25.562;2023-07-16T11:49:27;99547.94;;;43.80;18.43
54900;BME280;40801;41.924;25.562;2023-07-16T11:51:53;99555.44;;;44.32;17.71
54900;BME280;40801;41.924;25.562;2023-07-16T11:54:18;99557.78;;;44.52;18.18
54900;BME280;40801;41.924;25.562;2023-07-16T11:56:44;99557.53;;;44.56;17.93
54900;BME280;40801;41.924;25.562;2023-07-16T11:59:09;99550.75;;;44.59;17.75
54900;BME280;40801;41.924;25.562;2023-07-16T12:01:34;99555.31;;;44.18;17.77
54900;BME280;40801;41.924;25.562;2023-07-16T12:04:00;99553.91;;;44.55;18.20
54900;BME280;40801;41.924;25.562;2023-07-16T12:06:25;99544.97;;;44.64;17.44
54900;BME280;40801;41.924;25.562;2023-07-16T12:08:51;99538.53;;;44.83;16.96
54900;BME280;40801;41.924;25.562;2023-07-16T12:11:16;99548.03;;;44.91;16.85
54900;BME280;40801;41.924;25.562;2023-07-16T12:13:41;99537.00;;;44.38;17.03
54900;BME280;40801;41.924;25.562;2023-07-16T12:16:07;99539.72;;;44.49;17.60
54900;BME280;40801;41.924;25.562;2023-07-16T12:18:32;99548.78;;;44.24;17.58
54900;BME280;40801;41.924;25.562;2023-07-16T12:20:57;99547.25;;;44.47;18.25
54900;BME280;40801;41.924;25.562;2023-07-16T12:23:23;99539.38;;;44.34;18.01
54900;BME280;40801;41.924;25.562;2023-07-16T12:25:50;99542.63;;;44.44;17.72
54900;BME280;40801;41.924;25.562;2023-07-16T12:28:15;99538.47;;;44.45;17.98
54900;BME280;40801;41.924;25.562;2023-07-16T12:30:41;99534.34;;;44.22;18.08
54900;BME280;40801;41.924;25.562;2023-07-16T12:33:06;99542.88;;;44.22;18.03
54900;BME280;40801;41.924;25.562;2023-07-16T12:35:32;99539.00;;;44.43;17.38
54900;BME280;40801;41.924;25.562;2023-07-16T12:37:57;99534.91;;;44.63;17.64
54900;BME280;40801;41.924;25.562;2023-07-16T12:40:24;99533.75;;;44.53;17.92
54900;BME280;40801;41.924;25.562;2023-07-16T12:42:49;99530.91;;;44.72;17.31
54900;BME280;40801;41.924;25.562;2023-07-16T12:45:15;99530.00;;;44.64;17.70
54900;BME280;40801;41.924;25.562;2023-07-16T12:47:40;99534.16;;;44.38;17.91
54900;BME280;40801;41.924;25.562;2023-07-16T12:50:07;99515.19;;;44.22;17.70
54900;BME280;40801;41.924;25.562;2023-07-16T12:52:33;99513.34;;;44.49;17.83
54900;BME280;40801;41.924;25.562;2023-07-16T12:54:58;99514.25;;;44.38;17.89